createdAt,value
2023-03-24T00:03:38.370Z,8.40
2023-03-24T00:08:44.269Z,7.25
2023-03-24T00:13:50.985Z,9.77
2023-03-24T00:18:55.908Z,12.60
2023-03-24T00:24:01.516Z,8.70
2023-03-24T00:29:08.967Z,7.10
2023-03-24T00:34:13.857Z,10.20
2023-03-24T00:39:19.186Z,7.50
2023-03-24T00:44:25.196Z,9.77
2023-03-24T00:49:43.400Z,6.38
2023-03-24T00:54:48.436Z,6.22
2023-03-24T00:59:56.283Z,8.95
2023-03-24T01:05:02.559Z,9.82
2023-03-24T01:10:08.691Z,8.20
2023-03-24T01:15:19.288Z,4.07
2023-03-24T01:20:25.395Z,8.82
2023-03-24T01:25:30.730Z,11.80
2023-03-24T01:30:37.179Z,8.35
2023-03-24T01:35:41.488Z,7.03
2023-03-24T01:40:48.093Z,6.65
2023-03-24T01:46:19.005Z,5.63
2023-03-24T01:51:26.151Z,6.85
2023-03-24T01:56:34.992Z,8.63
2023-03-24T02:07:06.800Z,6.50
2023-03-24T02:12:11.301Z,5.85
2023-03-24T02:17:36.234Z,11.65
2023-03-24T02:23:31.564Z,8.68
2023-03-24T02:28:45.541Z,11.38
2023-03-24T02:34:46.365Z,8.40
2023-03-24T02:40:04.405Z,4.45
2023-03-24T02:45:19.474Z,6.28
2023-03-24T02:50:31.204Z,5.05
2023-03-24T02:55:43.292Z,5.70
2023-03-24T03:00:51.722Z,6.10
2023-03-24T03:06:21.752Z,5.90
2023-03-24T03:11:27.509Z,7.43
2023-03-24T03:16:39.368Z,7.25
2023-03-24T03:21:47.428Z,8.93
2023-03-24T03:26:57.814Z,11.60
2023-03-24T03:32:08.010Z,6.30
2023-03-24T03:37:21.837Z,7.20
2023-03-24T03:42:27.727Z,9.23
2023-03-24T03:47:33.890Z,10.13
2023-03-24T03:52:42.051Z,13.70
2023-03-24T03:57:48.492Z,19.05
2023-03-24T04:03:28.001Z,18.92
2023-03-24T04:08:46.716Z,19.13
2023-03-24T04:14:37.572Z,12.65
2023-03-24T04:20:14.391Z,10.30
2023-03-24T04:25:26.022Z,16.55
2023-03-24T04:30:43.130Z,11.65
2023-03-24T04:35:56.748Z,15.55
2023-03-24T04:41:12.188Z,14.85
2023-03-24T04:46:19.380Z,27.50
2023-03-24T04:51:50.218Z,12.52
2023-03-24T04:57:01.943Z,25.02
2023-03-24T05:02:27.905Z,24.00
2023-03-24T05:07:36.948Z,25.15
2023-03-24T05:12:46.607Z,24.30
2023-03-24T05:17:59.127Z,18.55
2023-03-24T05:23:03.458Z,23.70
2023-03-24T05:28:07.846Z,25.67
2023-03-24T05:33:14.765Z,24.20
2023-03-24T05:38:19.266Z,24.17
2023-03-24T05:43:28.007Z,22.88
2023-03-24T05:48:47.055Z,18.05
2023-03-24T05:53:56.350Z,21.15
2023-03-24T05:59:09.342Z,23.20
2023-03-24T06:04:33.700Z,22.67
2023-03-24T06:09:51.069Z,23.25
2023-03-24T06:14:57.067Z,31.17
2023-03-24T06:20:06.080Z,29.63
2023-03-24T06:25:30.245Z,29.57
2023-03-24T06:30:47.654Z,29.25
2023-03-24T06:36:01.285Z,29.08
2023-03-24T06:41:08.072Z,30.10
2023-03-24T06:46:13.294Z,29.95
2023-03-24T06:51:22.401Z,28.45
2023-03-24T06:56:27.481Z,32.45
2023-03-24T07:01:36.504Z,35.47
2023-03-24T07:07:12.492Z,31.95
2023-03-24T07:12:24.903Z,22.42
2023-03-24T07:17:29.985Z,27.83
2023-03-24T07:22:59.752Z,24.95
2023-03-24T07:28:20.409Z,23.30
2023-03-24T07:33:25.524Z,23.38
2023-03-24T07:38:31.249Z,22.98
2023-03-24T07:43:40.734Z,22.67
2023-03-24T07:49:18.234Z,21.90
2023-03-24T07:54:35.666Z,21.45
2023-03-24T07:59:40.149Z,21.50
2023-03-24T08:04:53.883Z,28.67
2023-03-24T08:10:32.202Z,17.55
2023-03-24T08:15:36.767Z,21.33
2023-03-24T08:20:41.192Z,25.55
2023-03-24T08:25:47.886Z,23.88
2023-03-24T08:30:52.467Z,17.67
2023-03-24T08:35:58.069Z,15.13
2023-03-24T08:41:07.044Z,10.93
2023-03-24T08:46:13.675Z,9.63
2023-03-24T08:51:19.314Z,8.77
2023-03-24T08:56:25.990Z,12.27
2023-03-24T09:01:30.320Z,8.18
2023-03-24T09:06:35.162Z,9.98
2023-03-24T09:11:40.934Z,7.00
2023-03-24T09:16:48.814Z,12.02
2023-03-24T09:21:53.229Z,9.75
2023-03-24T09:26:59.202Z,8.88
2023-03-24T09:32:03.461Z,10.80
2023-03-24T09:37:08.306Z,9.55
2023-03-24T09:42:20.472Z,10.45
2023-03-24T09:47:30.713Z,8.32
2023-03-24T09:52:40.722Z,17.83
2023-03-24T09:57:49.423Z,10.85
2023-03-24T10:02:56.868Z,8.20
2023-03-24T10:08:12.517Z,6.80
2023-03-24T10:13:23.304Z,8.07
2023-03-24T10:18:39.376Z,11.63
2023-03-24T10:23:56.078Z,9.05
2023-03-24T10:29:23.623Z,14.43
2023-03-24T10:34:31.219Z,7.20
2023-03-24T10:39:44.039Z,11.40
2023-03-24T10:44:53.793Z,10.75
2023-03-24T10:50:11.865Z,10.88
2023-03-24T10:55:21.151Z,7.30
2023-03-24T11:00:32.243Z,7.30
2023-03-24T11:05:39.356Z,8.27
2023-03-24T11:10:44.539Z,12.63
2023-03-24T11:15:59.186Z,8.93
2023-03-24T11:21:06.398Z,9.98
2023-03-24T11:26:15.953Z,8.20
2023-03-24T11:31:26.056Z,7.20
2023-03-24T11:36:47.309Z,10.50
2023-03-24T11:42:05.998Z,8.75
2023-03-24T11:47:15.161Z,8.50
2023-03-24T11:52:24.872Z,8.75
2023-03-24T11:57:47.409Z,9.80
2023-03-24T12:03:23.452Z,7.70
2023-03-24T12:08:43.056Z,9.43
2023-03-24T12:13:50.752Z,11.43
2023-03-24T12:19:24.241Z,9.63
2023-03-24T12:24:40.474Z,11.30
2023-03-24T12:30:00.652Z,12.63
2023-03-24T12:35:39.538Z,12.05
2023-03-24T12:41:03.992Z,10.70
2023-03-24T12:46:22.495Z,13.93
2023-03-24T12:51:35.209Z,9.70
2023-03-24T12:56:47.090Z,16.20
2023-03-24T13:01:55.605Z,13.07
2023-03-24T13:07:06.722Z,8.55
2023-03-24T13:12:17.189Z,9.20
2023-03-24T13:17:28.125Z,9.88
2023-03-24T13:22:35.539Z,13.48
2023-03-24T13:27:44.421Z,9.52
2023-03-24T13:32:52.333Z,15.38
2023-03-24T13:38:04.529Z,13.93
2023-03-24T13:43:14.371Z,16.45
2023-03-24T13:53:39.439Z,12.13
2023-03-24T13:58:52.400Z,10.38
2023-03-24T14:04:32.193Z,16.20
2023-03-24T14:09:56.325Z,25.30
2023-03-24T14:15:22.379Z,17.77
2023-03-24T14:20:35.551Z,14.23
2023-03-24T14:25:39.759Z,18.02
2023-03-24T14:31:02.270Z,14.38
2023-03-24T14:36:12.366Z,15.35
2023-03-24T14:41:23.570Z,17.42
2023-03-24T14:46:39.543Z,13.45
2023-03-24T14:51:49.738Z,15.82
2023-03-24T14:56:56.176Z,12.55
2023-03-24T15:02:07.142Z,8.45
2023-03-24T15:07:15.035Z,7.60
2023-03-24T15:12:19.438Z,12.40
2023-03-24T15:17:26.766Z,6.05
2023-03-24T15:22:42.903Z,11.18
2023-03-24T15:27:52.288Z,11.15
2023-03-24T15:32:58.334Z,8.05
2023-03-24T15:38:04.187Z,10.27
2023-03-24T15:43:18.342Z,10.70
2023-03-24T15:48:26.830Z,12.30
2023-03-24T15:53:39.728Z,11.73
2023-03-24T15:58:48.969Z,18.55
2023-03-24T16:03:56.466Z,11.93
2023-03-24T16:09:03.259Z,9.60
2023-03-24T16:14:24.529Z,10.27
2023-03-24T16:19:30.515Z,10.70
2023-03-24T16:24:34.913Z,14.48
2023-03-24T16:29:39.055Z,15.05
2023-03-24T16:34:44.899Z,11.40
2023-03-24T16:39:49.008Z,14.13
2023-03-24T16:44:53.876Z,20.27
2023-03-24T16:49:59.635Z,20.08
2023-03-24T16:55:04.235Z,24.45
2023-03-24T17:00:11.786Z,14.43
2023-03-24T17:05:24.524Z,17.13
2023-03-24T17:10:29.537Z,29.58
2023-03-24T17:15:33.929Z,22.42
2023-03-24T17:20:40.766Z,16.48
2023-03-24T17:25:46.536Z,18.88
2023-03-24T17:30:51.329Z,25.27
2023-03-24T17:35:57.624Z,17.15
2023-03-24T17:41:02.182Z,22.88
2023-03-24T17:46:06.797Z,19.83
2023-03-24T17:51:12.628Z,17.98
2023-03-24T17:56:16.939Z,15.93
2023-03-24T18:01:21.484Z,17.15
2023-03-24T18:06:27.795Z,20.27
2023-03-24T18:11:32.376Z,22.40
2023-03-24T18:16:37.240Z,20.67
2023-03-24T18:21:42.853Z,27.80
2023-03-24T18:26:49.169Z,28.30
2023-03-24T18:31:55.005Z,28.60
2023-03-24T18:37:00.788Z,26.13
2023-03-24T18:42:05.106Z,38.33
2023-03-24T18:47:11.610Z,59.13
2023-03-24T18:52:18.328Z,28.98
2023-03-24T18:57:22.633Z,18.67
2023-03-24T19:02:27.596Z,20.20
2023-03-24T19:07:33.855Z,31.23
2023-03-24T19:12:38.350Z,18.33
2023-03-24T19:17:43.268Z,18.83
2023-03-24T19:22:49.002Z,20.73
2023-03-24T19:27:53.345Z,17.58
2023-03-24T19:32:58.243Z,21.17
2023-03-24T19:38:04.481Z,21.30
2023-03-24T19:43:08.855Z,20.25
2023-03-24T19:48:13.694Z,17.02
2023-03-24T19:53:20.198Z,18.38
2023-03-24T19:58:24.747Z,15.13
2023-03-24T20:03:29.290Z,10.40
2023-03-24T20:08:35.096Z,10.95
2023-03-24T20:13:39.498Z,14.98
2023-03-24T20:18:44.342Z,17.52
2023-03-24T20:23:49.951Z,13.85
2023-03-24T20:28:54.460Z,11.63
2023-03-24T20:33:59.480Z,10.98
2023-03-24T20:39:06.190Z,11.15
2023-03-24T20:44:10.577Z,10.45
2023-03-24T20:49:16.833Z,9.43
2023-03-24T20:54:23.047Z,10.23
2023-03-24T20:59:27.196Z,7.13
2023-03-24T21:04:31.367Z,10.60
2023-03-24T21:09:37.522Z,14.40
2023-03-24T21:14:42.654Z,15.60
2023-03-24T21:19:47.311Z,16.25
2023-03-24T21:24:53.668Z,11.73
2023-03-24T21:29:57.828Z,12.95
2023-03-24T21:35:02.247Z,16.13
2023-03-24T21:40:10.658Z,14.65
2023-03-24T21:45:17.140Z,15.30
2023-03-24T21:50:23.495Z,14.88
2023-03-24T21:55:32.009Z,9.52
2023-03-24T22:00:40.235Z,9.60
2023-03-24T22:05:45.746Z,8.73
2023-03-24T22:10:54.532Z,6.85
2023-03-24T22:16:01.296Z,9.07
2023-03-24T22:21:08.778Z,8.75
2023-03-24T22:26:17.049Z,8.45
2023-03-24T22:31:23.272Z,11.68
2023-03-24T22:36:27.426Z,12.30
2023-03-24T22:41:33.276Z,15.48
2023-03-24T22:46:37.756Z,9.98
2023-03-24T22:51:42.899Z,12.68
2023-03-24T22:56:48.816Z,20.45
2023-03-24T23:02:06.440Z,10.95
2023-03-24T23:07:14.005Z,14.25
2023-03-24T23:12:19.564Z,11.25
2023-03-24T23:17:27.395Z,11.52
2023-03-24T23:22:33.732Z,8.07
2023-03-24T23:27:39.986Z,9.50
2023-03-24T23:32:47.229Z,10.15
2023-03-24T23:37:52.148Z,8.77
2023-03-24T23:42:58.038Z,11.93
2023-03-24T23:48:02.231Z,11.35
2023-03-24T23:53:06.755Z,11.23
2023-03-24T23:58:12.317Z,12.10
